createdAt,value
2022-10-17T00:02:18.785Z,1.40
2022-10-17T00:05:42.623Z,1.33
2022-10-17T00:09:04.889Z,1.58
2022-10-17T00:12:27.029Z,1.35
2022-10-17T00:15:49.469Z,1.30
2022-10-17T00:19:11.681Z,1.33
2022-10-17T00:22:33.842Z,1.60
2022-10-17T00:26:05.421Z,1.40
2022-10-17T00:29:27.594Z,2.30
2022-10-17T00:32:49.872Z,1.35
2022-10-17T00:36:24.318Z,1.30
2022-10-17T00:39:46.452Z,1.35
2022-10-17T00:43:18.224Z,1.60
2022-10-17T00:46:40.360Z,1.45
2022-10-17T00:50:06.794Z,1.52
2022-10-17T00:53:29.098Z,1.70
2022-10-17T00:56:52.026Z,1.70
2022-10-17T01:00:15.861Z,1.60
2022-10-17T01:03:38.294Z,1.70
2022-10-17T01:07:00.449Z,1.67
2022-10-17T01:10:26.215Z,1.60
2022-10-17T01:14:21.196Z,1.60
2022-10-17T01:18:01.058Z,1.50
2022-10-17T01:21:29.886Z,1.60
2022-10-17T01:25:07.070Z,1.58
2022-10-17T01:29:07.477Z,1.65
2022-10-17T01:32:39.393Z,1.50
2022-10-17T01:36:10.545Z,1.38
2022-10-17T01:39:54.154Z,1.67
2022-10-17T01:43:28.138Z,1.42
2022-10-17T01:50:31.019Z,1.30
2022-10-17T01:54:19.269Z,1.30
2022-10-17T01:57:46.300Z,1.60
2022-10-17T02:01:11.285Z,1.77
2022-10-17T02:04:34.582Z,1.30
2022-10-17T02:07:56.832Z,1.40
2022-10-17T02:11:27.563Z,1.48
2022-10-17T02:15:04.624Z,1.55
2022-10-17T02:18:57.243Z,1.20
2022-10-17T02:22:25.447Z,1.48
2022-10-17T02:26:00.520Z,1.60
2022-10-17T02:30:08.802Z,1.60
2022-10-17T02:33:43.296Z,1.40
2022-10-17T02:37:08.304Z,1.63
2022-10-17T02:43:57.658Z,1.23
2022-10-17T02:47:28.115Z,1.40
2022-10-17T02:51:28.736Z,1.10
2022-10-17T02:55:14.271Z,1.20
2022-10-17T02:58:38.634Z,1.83
2022-10-17T03:02:06.612Z,1.43
2022-10-17T03:05:30.006Z,1.30
2022-10-17T03:08:52.180Z,1.52
2022-10-17T03:12:14.305Z,1.33
2022-10-17T03:15:36.550Z,1.38
2022-10-17T03:18:58.860Z,1.58
2022-10-17T03:22:21.137Z,1.23
2022-10-17T03:25:43.394Z,1.48
2022-10-17T03:29:07.044Z,1.33
2022-10-17T03:32:32.795Z,1.25
2022-10-17T03:35:55.040Z,1.33
2022-10-17T03:39:17.481Z,1.60
2022-10-17T03:42:40.451Z,1.23
2022-10-17T03:46:03.587Z,1.17
2022-10-17T03:49:25.800Z,1.58
2022-10-17T03:52:49.244Z,1.42
2022-10-17T03:56:14.590Z,1.40
2022-10-17T03:59:36.847Z,1.65
2022-10-17T04:03:04.530Z,1.60
2022-10-17T04:06:27.248Z,1.60
2022-10-17T04:09:49.572Z,1.30
2022-10-17T04:13:17.139Z,1.30
2022-10-17T04:16:39.692Z,1.50
2022-10-17T04:20:08.097Z,1.23
2022-10-17T04:23:30.686Z,1.60
2022-10-17T04:26:58.965Z,1.55
2022-10-17T04:33:50.398Z,1.35
2022-10-17T04:37:12.678Z,1.35
2022-10-17T04:40:36.261Z,1.42
2022-10-17T04:43:58.988Z,1.33
2022-10-17T04:47:22.194Z,1.42
2022-10-17T04:50:57.341Z,1.40
2022-10-17T04:54:42.157Z,1.27
2022-10-17T04:58:05.826Z,1.45
2022-10-17T05:01:28.423Z,1.40
2022-10-17T05:04:52.730Z,1.40
2022-10-17T05:08:16.119Z,1.30
2022-10-17T05:11:39.390Z,1.38
2022-10-17T05:15:01.561Z,1.30
2022-10-17T05:18:24.431Z,1.30
2022-10-17T05:21:47.243Z,1.25
2022-10-17T05:25:09.762Z,1.08
2022-10-17T05:28:32.023Z,1.20
2022-10-17T05:31:56.332Z,1.17
2022-10-17T05:35:18.686Z,1.30
2022-10-17T05:38:41.930Z,1.10
2022-10-17T05:42:05.434Z,1.05
2022-10-17T05:45:28.804Z,1.20
2022-10-17T05:48:52.971Z,1.10
2022-10-17T05:52:15.218Z,1.17
2022-10-17T05:55:59.254Z,1.20
2022-10-17T05:59:21.781Z,1.23
2022-10-17T06:02:48.709Z,1.30
2022-10-17T06:06:14.461Z,0.90
2022-10-17T06:09:40.051Z,1.08
2022-10-17T06:13:03.369Z,1.10
2022-10-17T06:16:25.955Z,1.23
2022-10-17T06:19:48.205Z,1.10
2022-10-17T06:23:11.203Z,0.80
2022-10-17T06:26:49.871Z,1.52
2022-10-17T06:30:12.558Z,1.08
2022-10-17T06:33:35.248Z,0.85
2022-10-17T06:36:58.451Z,0.98
2022-10-17T06:40:20.698Z,1.13
2022-10-17T06:43:47.202Z,1.17
2022-10-17T06:47:28.019Z,0.95
2022-10-17T06:50:54.062Z,0.95
2022-10-17T06:54:18.989Z,0.90
2022-10-17T06:58:13.688Z,0.88
2022-10-17T07:01:41.867Z,0.90
2022-10-17T07:05:07.466Z,0.90
2022-10-17T07:08:30.265Z,1.02
2022-10-17T07:11:55.072Z,1.10
2022-10-17T07:15:17.329Z,1.05
2022-10-17T07:18:40.929Z,1.00
2022-10-17T07:22:03.578Z,0.73
2022-10-17T07:25:28.378Z,0.90
2022-10-17T07:28:56.031Z,1.00
2022-10-17T07:32:31.949Z,0.70
2022-10-17T07:35:54.772Z,1.25
2022-10-17T07:39:17.229Z,0.85
2022-10-17T07:42:41.084Z,0.93
2022-10-17T07:46:05.198Z,0.80
2022-10-17T07:49:28.396Z,0.80
2022-10-17T07:52:50.837Z,1.00
2022-10-17T07:56:13.454Z,0.82
2022-10-17T07:59:37.669Z,0.93
2022-10-17T08:02:59.912Z,0.70
2022-10-17T08:06:22.039Z,0.75
2022-10-17T08:09:44.625Z,0.85
2022-10-17T08:13:06.822Z,0.75
2022-10-17T08:16:28.981Z,0.85
2022-10-17T08:19:51.132Z,0.63
2022-10-17T08:23:13.307Z,0.82
2022-10-17T08:26:39.274Z,0.82
2022-10-17T08:30:05.054Z,0.70
2022-10-17T08:33:27.189Z,0.68
2022-10-17T08:36:49.468Z,1.58
2022-10-17T08:40:35.431Z,0.85
2022-10-17T08:44:16.348Z,1.20
2022-10-17T08:47:42.091Z,0.60
2022-10-17T08:51:21.891Z,0.82
2022-10-17T08:54:47.085Z,0.73
2022-10-17T09:01:58.643Z,0.57
2022-10-17T09:05:51.404Z,0.50
2022-10-17T09:09:25.126Z,0.70
2022-10-17T09:13:24.481Z,0.95
2022-10-17T09:17:15.470Z,0.63
2022-10-17T09:20:49.419Z,0.70
2022-10-17T09:24:35.654Z,0.60
2022-10-17T09:28:12.498Z,0.45
2022-10-17T09:31:42.221Z,0.68
2022-10-17T09:35:04.772Z,0.70
2022-10-17T09:38:36.531Z,0.60
2022-10-17T09:42:00.919Z,0.75
2022-10-17T09:45:28.245Z,0.93
2022-10-17T09:49:05.235Z,0.68
2022-10-17T09:52:34.271Z,0.50
2022-10-17T09:55:59.222Z,0.70
2022-10-17T09:59:34.930Z,0.70
2022-10-17T10:03:22.617Z,0.85
2022-10-17T10:07:06.048Z,0.55
2022-10-17T10:10:29.922Z,0.60
2022-10-17T10:13:52.496Z,0.70
2022-10-17T10:17:41.719Z,1.80
2022-10-17T10:21:16.829Z,3.28
2022-10-17T10:24:39.261Z,2.90
2022-10-17T10:28:02.369Z,2.63
2022-10-17T10:31:40.237Z,2.22
2022-10-17T10:35:02.431Z,1.95
2022-10-17T10:38:25.155Z,1.67
2022-10-17T10:41:50.601Z,2.15
2022-10-17T10:45:29.264Z,1.90
2022-10-17T10:49:03.267Z,1.63
2022-10-17T10:52:32.941Z,1.55
2022-10-17T10:56:19.934Z,1.35
2022-10-17T11:00:15.593Z,1.65
2022-10-17T11:04:21.840Z,1.27
2022-10-17T11:11:34.377Z,1.20
2022-10-17T11:15:01.742Z,1.30
2022-10-17T11:18:44.553Z,1.15
2022-10-17T11:22:32.625Z,1.75
2022-10-17T11:25:58.913Z,1.20
2022-10-17T11:29:31.402Z,1.25
2022-10-17T11:33:00.737Z,0.88
2022-10-17T11:36:28.129Z,1.20
2022-10-17T11:40:02.585Z,0.90
2022-10-17T11:43:46.169Z,0.80
2022-10-17T11:47:29.573Z,0.98
2022-10-17T11:55:02.047Z,0.70
2022-10-17T11:58:44.305Z,0.90
2022-10-17T12:02:15.966Z,0.90
2022-10-17T12:05:50.970Z,0.77
2022-10-17T12:09:22.128Z,0.73
2022-10-17T12:12:44.321Z,0.70
2022-10-17T12:16:21.842Z,0.70
2022-10-17T12:19:44.137Z,0.70
2022-10-17T12:23:12.436Z,0.85
2022-10-17T12:26:34.630Z,0.90
2022-10-17T12:30:16.530Z,0.80
2022-10-17T12:34:04.483Z,0.60
2022-10-17T12:38:19.039Z,0.50
2022-10-17T12:41:41.353Z,0.90
2022-10-17T12:45:41.690Z,0.68
2022-10-17T12:49:04.509Z,0.52
2022-10-17T12:52:27.142Z,0.40
2022-10-17T12:55:51.818Z,0.50
2022-10-17T12:59:22.327Z,0.60
2022-10-17T13:02:45.453Z,0.63
2022-10-17T13:06:08.002Z,0.40
2022-10-17T13:09:38.013Z,0.40
2022-10-17T13:13:33.648Z,0.57
2022-10-17T13:16:57.663Z,0.50
2022-10-17T13:20:25.555Z,0.38
2022-10-17T13:23:53.156Z,0.47
2022-10-17T13:27:33.101Z,0.60
2022-10-17T13:30:57.055Z,0.50
2022-10-17T13:34:22.525Z,0.22
2022-10-17T13:37:51.553Z,0.60
2022-10-17T13:41:36.304Z,0.50
2022-10-17T13:44:59.615Z,0.40
2022-10-17T13:48:27.362Z,0.40
2022-10-17T13:51:52.621Z,0.50
2022-10-17T13:55:20.096Z,0.50
2022-10-17T13:58:48.318Z,0.45
2022-10-17T14:02:16.151Z,0.40
2022-10-17T14:06:11.842Z,0.68
2022-10-17T14:09:34.254Z,0.45
2022-10-17T14:12:57.991Z,0.30
2022-10-17T14:16:21.221Z,0.60
2022-10-17T14:19:46.036Z,0.60
2022-10-17T14:23:37.213Z,0.30
2022-10-17T14:30:55.296Z,0.47
2022-10-17T14:34:30.814Z,0.50
2022-10-17T14:37:57.836Z,0.47
2022-10-17T14:41:48.068Z,0.47
2022-10-17T14:45:16.583Z,0.60
2022-10-17T14:48:42.453Z,0.47
2022-10-17T14:52:18.631Z,0.40
2022-10-17T14:55:54.382Z,0.43
2022-10-17T15:03:00.840Z,0.50
2022-10-17T15:06:34.224Z,0.47
2022-10-17T15:09:57.094Z,0.50
2022-10-17T15:13:28.232Z,0.70
2022-10-17T15:16:51.724Z,0.30
2022-10-17T15:20:16.816Z,0.40
2022-10-17T15:27:01.071Z,0.50
2022-10-17T15:30:26.196Z,0.30
2022-10-17T15:37:18.939Z,0.80
2022-10-17T15:40:41.731Z,0.30
2022-10-17T15:44:04.082Z,0.40
2022-10-17T15:47:35.501Z,0.32
2022-10-17T15:50:57.777Z,0.50
2022-10-17T15:54:20.018Z,0.47
2022-10-17T15:57:45.084Z,0.70
2022-10-17T16:01:07.624Z,0.40
2022-10-17T16:04:30.606Z,0.80
2022-10-17T16:07:53.986Z,0.40
2022-10-17T16:11:38.946Z,0.40
2022-10-17T16:15:01.050Z,0.50
2022-10-17T16:18:23.225Z,0.30
2022-10-17T16:21:45.397Z,0.30
2022-10-17T16:25:19.737Z,0.20
2022-10-17T16:28:46.125Z,0.65
2022-10-17T16:32:10.081Z,0.52
2022-10-17T16:35:36.540Z,0.60
2022-10-17T16:38:59.941Z,0.57
2022-10-17T16:42:22.465Z,0.55
2022-10-17T16:45:44.590Z,0.50
2022-10-17T16:49:06.918Z,0.43
2022-10-17T16:52:29.421Z,0.40
2022-10-17T16:56:02.879Z,0.52
2022-10-17T16:59:25.976Z,0.40
2022-10-17T17:02:48.751Z,0.50
2022-10-17T17:06:16.781Z,0.47
2022-10-17T17:09:39.946Z,0.40
2022-10-17T17:13:03.184Z,0.50
2022-10-17T17:16:26.938Z,0.70
2022-10-17T17:19:49.142Z,0.60
2022-10-17T17:23:15.730Z,0.52
2022-10-17T17:26:38.937Z,0.40
2022-10-17T17:30:01.077Z,0.50
2022-10-17T17:33:24.885Z,0.90
2022-10-17T17:36:47.239Z,0.50
2022-10-17T17:40:10.008Z,0.50
2022-10-17T17:43:32.296Z,0.68
2022-10-17T17:46:54.496Z,0.50
2022-10-17T17:50:16.718Z,0.57
2022-10-17T17:53:39.361Z,0.35
2022-10-17T17:57:01.469Z,0.60
2022-10-17T18:00:23.736Z,0.60
2022-10-17T18:03:47.076Z,0.60
2022-10-17T18:07:09.215Z,0.60
2022-10-17T18:10:31.413Z,0.90
2022-10-17T18:13:59.558Z,0.50
2022-10-17T18:17:22.012Z,0.60
2022-10-17T18:20:44.784Z,0.60
2022-10-17T18:24:07.940Z,0.70
2022-10-17T18:27:30.193Z,0.85
2022-10-17T18:30:52.462Z,0.70
2022-10-17T18:34:14.665Z,0.50
2022-10-17T18:37:36.848Z,0.70
2022-10-17T18:41:07.518Z,0.60
2022-10-17T18:44:29.792Z,0.57
2022-10-17T18:47:54.818Z,1.05
2022-10-17T18:51:20.202Z,0.40
2022-10-17T18:54:42.393Z,0.57
2022-10-17T18:58:04.589Z,0.82
2022-10-17T19:01:27.623Z,0.65
2022-10-17T19:08:16.933Z,0.60
2022-10-17T19:11:39.621Z,0.60
2022-10-17T19:15:01.830Z,0.75
2022-10-17T19:18:23.948Z,0.68
2022-10-17T19:21:46.894Z,0.63
2022-10-17T19:25:09.487Z,0.45
2022-10-17T19:28:32.492Z,0.73
2022-10-17T19:35:17.906Z,0.63
2022-10-17T19:38:40.368Z,0.90
2022-10-17T19:42:06.686Z,0.75
2022-10-17T19:45:29.357Z,0.93
2022-10-17T19:48:52.069Z,0.73
2022-10-17T19:52:14.264Z,0.80
2022-10-17T19:55:36.461Z,0.70
2022-10-17T19:58:59.387Z,0.80
2022-10-17T20:02:21.562Z,0.88
2022-10-17T20:05:43.880Z,0.82
2022-10-17T20:09:08.801Z,0.82
2022-10-17T20:12:33.744Z,1.63
2022-10-17T20:15:57.341Z,1.00
2022-10-17T20:19:19.963Z,1.08
2022-10-17T20:22:42.136Z,0.93
2022-10-17T20:26:25.309Z,0.93
2022-10-17T20:29:49.398Z,0.85
2022-10-17T20:33:13.844Z,1.20
2022-10-17T20:36:37.476Z,1.13
2022-10-17T20:40:22.602Z,0.93
2022-10-17T20:43:42.062Z,1.23
2022-10-17T20:47:04.670Z,1.20
2022-10-17T20:50:28.623Z,1.20
2022-10-17T20:53:50.809Z,1.17
2022-10-17T20:57:13.004Z,1.05
2022-10-17T21:00:38.300Z,1.15
2022-10-17T21:04:21.368Z,1.27
2022-10-17T21:07:43.519Z,1.33
2022-10-17T21:11:26.664Z,1.38
2022-10-17T21:14:48.853Z,1.55
2022-10-17T21:18:11.014Z,1.20
2022-10-17T21:21:35.700Z,1.30
2022-10-17T21:24:57.823Z,1.20
2022-10-17T21:28:20.000Z,1.15
2022-10-17T21:31:43.998Z,1.50
2022-10-17T21:35:06.686Z,1.25
2022-10-17T21:38:28.971Z,1.65
2022-10-17T21:41:52.097Z,1.30
2022-10-17T21:45:24.882Z,1.40
2022-10-17T21:48:49.065Z,1.58
2022-10-17T21:52:11.391Z,1.13
2022-10-17T21:55:36.517Z,1.38
2022-10-17T22:02:21.370Z,1.20
2022-10-17T22:05:45.076Z,1.50
2022-10-17T22:09:11.392Z,1.55
2022-10-17T22:12:33.713Z,1.58
2022-10-17T22:16:07.940Z,1.35
2022-10-17T22:19:30.070Z,1.60
2022-10-17T22:22:52.160Z,1.10
2022-10-17T22:26:14.942Z,1.42
2022-10-17T22:29:37.145Z,1.60
2022-10-17T22:32:59.285Z,1.65
2022-10-17T22:36:21.595Z,1.35
2022-10-17T22:39:43.725Z,1.27
2022-10-17T22:43:06.013Z,1.25
2022-10-17T22:46:28.541Z,1.52
2022-10-17T22:49:50.668Z,1.23
2022-10-17T22:53:13.021Z,1.30
2022-10-17T22:56:35.278Z,1.30
2022-10-17T22:59:57.476Z,1.45
2022-10-17T23:03:20.746Z,1.30
2022-10-17T23:06:42.877Z,1.60
2022-10-17T23:10:05.401Z,1.52
2022-10-17T23:13:27.582Z,1.70
2022-10-17T23:16:49.706Z,1.80
2022-10-17T23:20:12.066Z,1.65
2022-10-17T23:23:34.383Z,1.30
2022-10-17T23:26:57.077Z,1.30
2022-10-17T23:30:19.306Z,1.38
2022-10-17T23:33:42.164Z,1.75
2022-10-17T23:37:04.267Z,1.45
2022-10-17T23:40:26.765Z,1.58
2022-10-17T23:43:48.951Z,1.70
2022-10-17T23:47:11.114Z,1.48
2022-10-17T23:50:33.339Z,1.30
2022-10-17T23:53:55.560Z,1.20
2022-10-17T23:57:17.676Z,1.40
